Hlavní strana
METAR-TAF:

METAR-TAF

Letiště :

Tahiti, Francouzská Polynésie

zeměpisná šířka: 17-33S, zeměpisná délka: 149-37W, výška: 2 m

Aktuální stav počasí

Zpráva byla vytvořena před 20 minutami, v 08:30 UTC
Východoseverovýchodní vítr 11 kt
Teplota 27°C
Vlhkost vzduchu 70%
Tlak 1011 hPa
Viditelnost 10 km a více
Skoro jasno ve výšce 2000 ft

METAR: NTAA 150830Z 06011KT 9999 FEW020 27/21 Q1011 NOSIG

Čas: 22:50 (08:50 UTC)

Předpověď počasí

Zpráva byla vytvořena před 3 hodinami a 50 minutami, v 05:00 UTC
Předpověď platná od 15 v 06 UTC do 16 v 12 UTC
vítr z různých směrů 3 kt
Viditelnost 10 km a více
Skoro jasno ve výšce 2300 ft
Polojasno ve výšce 5000 ft
Změna
od 15 v 18 UTC do 15 v 20 UTC
Severní vítr 15 kt
Změna
od 16 v 02 UTC do 16 v 04 UTC
vítr z různých směrů 3 kt

TAF: NTAA 150500Z 1506/1612 VRB03KT 9999 FEW023 SCT050 BECMG 1518/1520 01015KT BECMG 1602/1604 VRB03KT

Stav a předpovědi počasí z více než 4 000 letišť (zprávy METAR a TAF).

Červené a žluté tečky na mapě představují dostupné meteorologické stanice.

Když kurzor umístíte na tečku, zobrazí se název stanice.

Pak kliknutím zobrazíte stav a předpověď počasí.

Chcete-li změnit mapu, kliknutím na zelené tlačítko se znaménkem +mapu přiblížíte, kliknutím na zelené tlačítko se znaménkem – mapu oddálíte a kliknutím na zelené šipky přejdete na sousední mapy.


METAR-TAF: